Columbia, SC

12:41 AM EST on March 01, 2015 (GMT -0500)
Near Downtown | Change Station
CLOSE
Current Station
Personal Weather Station
Location: Columbia, SC
Elevation: 260 ft
Nearby Weather Stations

Elev 260 ft 34.02 °N, 81.07 °W | Updated 7 minutes ago

Light Rain
Light Rain
38.3 °F
Feels Like 38 °F
N
0.0
Wind Variable Wind from SSE
Gusts 1.0 mph

Today
High -- | Low -- °F
--% Chance of Precip.
Yesterday
High -- | Low -- °F
Precip. -- in
6:53 AM 6:20 PM
Waxing Gibbous, 82% visible
Pressure 30.62 in
Visibility 10.0 miles
Clouds Overcast 2300 ft
Windchill 38 °F
Dew Point 34 °F
Humidity 84%
Rainfall -999.00 in
Snow Depth Not available.
UV 0 out of 12
Pollen 8.30 out of 12
Air Quality Not available.
Flu Activity Not available.
METAR KCUB 010453Z AUTO 08005KT 10SM -RA OVC023 05/M02 A3062 RMK AO2 SLP369 P0001 T00501017 401110011

More Conditions Fewer Conditions

Pressure 30.62 in
Visibility 10.0 miles
Clouds Overcast 2300 ft
Windchill 38 °F
Dew Point 34 °F
Humidity 84%
Rainfall -999.00 in
Snow Depth Not available.
UV 0 out of 12
Pollen 8.30 out of 12
Air Quality Not available.
Flu Activity Not available.
METAR KCUB 010453Z AUTO 08005KT 10SM -RA OVC023 05/M02 A3062 RMK AO2 SLP369 P0001 T00501017 401110011

More Conditions Fewer Conditions

10-Day Weather Forecast

Almanac

Astronomy

Mar. 01, 2015 Rise Set
Actual Time
Civil Twilight
Nautical Twilight
Astronomical Twilight
Moon
Length of Visible Light
Length of Day
Tomorrow will be .
, % of the Moon is Illuminated

Today's Extremes

State Highs State Lows

Community

WunderPhotos

Upload Photos

1,801,336 photos uploaded!

WunderBlogs® & News

Nearby

Air Quality

  Air Quality AQ Index Pollutant
Not available.

Snow Depth

Station Depth Elevation

Earthquake Activity

City Distance Mag. Time & Date
Minimum magnitude displayed is 2.5.

Coastal Water Temperatures

Place Temperature

Nearby Weather Stations